Granger, Washington
Current Conditions -  °F | °C
As of 1:53 AM on Monday 26 Jan 2015 (Local Time) from KYKM Reporting Station
Moderate Fog Moderate Fog  
Wind Chill: 30°   Ceiling: 200
Heat Index: 36°   Visibility: 0.25mi
Dew Point: 34°   Wind: 7mph
Humidity: 93%   Direction: 270°W
Pressure: 30.13"   Gusts: NA
Location:  46.34°N, 120.19°W
Report Text: KYKM 260953Z AUTO 27006KT 1/4SM R27/1600V1800FT FG VV002 02/01 A3013 RMK AO2 SLP210 T00220011
Loading
Personal Weather Stations






























Interactive Weather Map New forecast layout! Learn more

10-Day Weather Forecast

Advertisements
Track Severe Weather on mobile